sensor_id;sensor_type;location;lat;lon;timestamp;temperature;humidity
52203;DHT22;38173;52.850;6.970;2023-02-28T00:00:23;2.40;99.90
52203;DHT22;38173;52.850;6.970;2023-02-28T00:02:49;2.50;99.90
52203;DHT22;38173;52.850;6.970;2023-02-28T00:05:16;2.50;99.90
52203;DHT22;38173;52.850;6.970;2023-02-28T00:07:42;2.50;99.90
52203;DHT22;38173;52.850;6.970;2023-02-28T00:10:09;2.50;99.90
52203;DHT22;38173;52.850;6.970;2023-02-28T00:12:36;2.50;99.90
52203;DHT22;38173;52.850;6.970;2023-02-28T00:15:02;2.50;99.90
52203;DHT22;38173;52.850;6.970;2023-02-28T00:17:30;2.50;99.90
52203;DHT22;38173;52.850;6.970;2023-02-28T00:19:56;2.50;99.90
52203;DHT22;38173;52.850;6.970;2023-02-28T00:22:22;2.50;99.90
52203;DHT22;38173;52.850;6.970;2023-02-28T00:24:47;2.50;99.90
52203;DHT22;38173;52.850;6.970;2023-02-28T00:27:14;2.50;99.90
52203;DHT22;38173;52.850;6.970;2023-02-28T00:29:40;2.50;99.90
52203;DHT22;38173;52.850;6.970;2023-02-28T00:32:06;2.50;99.90
52203;DHT22;38173;52.850;6.970;2023-02-28T00:34:34;2.50;99.90
52203;DHT22;38173;52.850;6.970;2023-02-28T00:37:07;2.50;99.90
52203;DHT22;38173;52.850;6.970;2023-02-28T00:39:34;2.50;99.90
52203;DHT22;38173;52.850;6.970;2023-02-28T00:42:00;2.50;99.90
52203;DHT22;38173;52.850;6.970;2023-02-28T00:44:26;2.50;99.90
52203;DHT22;38173;52.850;6.970;2023-02-28T00:46:53;2.50;99.90
52203;DHT22;38173;52.850;6.970;2023-02-28T00:49:19;2.50;99.90
52203;DHT22;38173;52.850;6.970;2023-02-28T00:51:46;2.60;99.90
52203;DHT22;38173;52.850;6.970;2023-02-28T00:54:11;2.50;99.90
52203;DHT22;38173;52.850;6.970;2023-02-28T00:56:37;2.50;99.90
52203;DHT22;38173;52.850;6.970;2023-02-28T00:59:03;2.50;99.90
52203;DHT22;38173;52.850;6.970;2023-02-28T01:01:28;2.50;99.90
52203;DHT22;38173;52.850;6.970;2023-02-28T01:03:54;2.50;99.90
52203;DHT22;38173;52.850;6.970;2023-02-28T01:06:20;2.50;99.90
52203;DHT22;38173;52.850;6.970;2023-02-28T01:08:46;2.50;99.90
52203;DHT22;38173;52.850;6.970;2023-02-28T01:11:12;2.50;99.90
52203;DHT22;38173;52.850;6.970;2023-02-28T01:13:39;2.50;99.90
52203;DHT22;38173;52.850;6.970;2023-02-28T01:16:05;2.50;99.90
52203;DHT22;38173;52.850;6.970;2023-02-28T01:18:31;2.50;99.90
52203;DHT22;38173;52.850;6.970;2023-02-28T01:20:56;2.60;99.90
52203;DHT22;38173;52.850;6.970;2023-02-28T01:23:22;2.60;99.90
52203;DHT22;38173;52.850;6.970;2023-02-28T01:25:49;2.60;99.90
52203;DHT22;38173;52.850;6.970;2023-02-28T01:28:15;2.50;99.90
52203;DHT22;38173;52.850;6.970;2023-02-28T01:30:40;2.60;99.90
52203;DHT22;38173;52.850;6.970;2023-02-28T01:33:09;2.60;99.90
52203;DHT22;38173;52.850;6.970;2023-02-28T01:35:43;2.60;99.90
52203;DHT22;38173;52.850;6.970;2023-02-28T01:38:11;2.50;99.90
52203;DHT22;38173;52.850;6.970;2023-02-28T01:40:37;2.60;99.90
52203;DHT22;38173;52.850;6.970;2023-02-28T01:43:04;2.60;99.90
52203;DHT22;38173;52.850;6.970;2023-02-28T01:45:31;2.50;99.90
52203;DHT22;38173;52.850;6.970;2023-02-28T01:47:58;2.70;99.90
52203;DHT22;38173;52.850;6.970;2023-02-28T01:50:27;2.60;99.90
52203;DHT22;38173;52.850;6.970;2023-02-28T01:52:54;2.60;99.90
52203;DHT22;38173;52.850;6.970;2023-02-28T01:55:22;2.60;99.90
52203;DHT22;38173;52.850;6.970;2023-02-28T01:57:49;2.60;99.90
52203;DHT22;38173;52.850;6.970;2023-02-28T02:00:17;2.70;99.90
52203;DHT22;38173;52.850;6.970;2023-02-28T02:02:44;2.60;99.90
52203;DHT22;38173;52.850;6.970;2023-02-28T02:05:16;2.60;99.90
52203;DHT22;38173;52.850;6.970;2023-02-28T02:07:43;2.60;99.90
52203;DHT22;38173;52.850;6.970;2023-02-28T02:17:53;2.60;99.90
52203;DHT22;38173;52.850;6.970;2023-02-28T02:33:05;2.60;99.90
52203;DHT22;38173;52.850;6.970;2023-02-28T02:38:16;2.60;99.90
52203;DHT22;38173;52.850;6.970;2023-02-28T02:43:38;2.50;99.90
52203;DHT22;38173;52.850;6.970;2023-02-28T02:46:10;2.40;99.90
52203;DHT22;38173;52.850;6.970;2023-02-28T02:48:38;2.50;99.90
52203;DHT22;38173;52.850;6.970;2023-02-28T02:51:13;2.40;99.90
52203;DHT22;38173;52.850;6.970;2023-02-28T02:53:56;2.40;99.90
52203;DHT22;38173;52.850;6.970;2023-02-28T02:56:25;2.40;99.90
52203;DHT22;38173;52.850;6.970;2023-02-28T02:58:51;2.30;99.90
52203;DHT22;38173;52.850;6.970;2023-02-28T03:01:19;2.40;99.90
52203;DHT22;38173;52.850;6.970;2023-02-28T03:06:47;2.30;99.90
52203;DHT22;38173;52.850;6.970;2023-02-28T03:09:13;2.40;99.90
52203;DHT22;38173;52.850;6.970;2023-02-28T03:11:39;2.40;99.90
52203;DHT22;38173;52.850;6.970;2023-02-28T03:14:10;2.40;99.90
52203;DHT22;38173;52.850;6.970;2023-02-28T03:21:43;2.40;99.90
52203;DHT22;38173;52.850;6.970;2023-02-28T03:26:45;2.30;99.90
52203;DHT22;38173;52.850;6.970;2023-02-28T03:29:35;2.30;99.90
52203;DHT22;38173;52.850;6.970;2023-02-28T03:32:08;2.30;99.90
52203;DHT22;38173;52.850;6.970;2023-02-28T03:34:41;2.30;99.90
52203;DHT22;38173;52.850;6.970;2023-02-28T03:37:10;2.40;99.90
52203;DHT22;38173;52.850;6.970;2023-02-28T03:39:39;2.30;99.90
52203;DHT22;38173;52.850;6.970;2023-02-28T03:42:11;2.30;99.90
52203;DHT22;38173;52.850;6.970;2023-02-28T03:44:39;2.30;99.90
52203;DHT22;38173;52.850;6.970;2023-02-28T03:48:08;2.30;99.90
52203;DHT22;38173;52.850;6.970;2023-02-28T03:50:22;2.30;99.90
52203;DHT22;38173;52.850;6.970;2023-02-28T03:52:49;2.30;99.90
52203;DHT22;38173;52.850;6.970;2023-02-28T03:55:15;2.30;99.90
52203;DHT22;38173;52.850;6.970;2023-02-28T03:57:45;2.30;99.90
52203;DHT22;38173;52.850;6.970;2023-02-28T04:00:17;2.30;99.90
52203;DHT22;38173;52.850;6.970;2023-02-28T04:02:44;2.30;99.90
52203;DHT22;38173;52.850;6.970;2023-02-28T04:05:10;2.30;99.90
52203;DHT22;38173;52.850;6.970;2023-02-28T04:07:36;2.30;99.90
52203;DHT22;38173;52.850;6.970;2023-02-28T04:10:03;2.30;99.90
52203;DHT22;38173;52.850;6.970;2023-02-28T04:12:29;2.30;99.90
52203;DHT22;38173;52.850;6.970;2023-02-28T04:14:55;2.30;99.90
52203;DHT22;38173;52.850;6.970;2023-02-28T04:17:20;2.20;99.90
52203;DHT22;38173;52.850;6.970;2023-02-28T04:19:46;2.30;99.90
52203;DHT22;38173;52.850;6.970;2023-02-28T04:22:12;2.30;99.90
52203;DHT22;38173;52.850;6.970;2023-02-28T04:24:40;2.20;99.90
52203;DHT22;38173;52.850;6.970;2023-02-28T04:27:07;2.30;99.90
52203;DHT22;38173;52.850;6.970;2023-02-28T04:29:36;2.30;99.90
52203;DHT22;38173;52.850;6.970;2023-02-28T04:32:01;2.30;99.90
52203;DHT22;38173;52.850;6.970;2023-02-28T04:34:29;2.30;99.90
52203;DHT22;38173;52.850;6.970;2023-02-28T04:36:55;2.30;99.90
52203;DHT22;38173;52.850;6.970;2023-02-28T04:39:22;2.30;99.90
52203;DHT22;38173;52.850;6.970;2023-02-28T04:41:49;2.30;99.90
52203;DHT22;38173;52.850;6.970;2023-02-28T04:44:15;2.30;99.90
52203;DHT22;38173;52.850;6.970;2023-02-28T04:46:47;2.30;99.90
52203;DHT22;38173;52.850;6.970;2023-02-28T04:49:13;2.30;99.90
52203;DHT22;38173;52.850;6.970;2023-02-28T04:51:39;2.30;99.90
52203;DHT22;38173;52.850;6.970;2023-02-28T04:54:04;2.30;99.90
52203;DHT22;38173;52.850;6.970;2023-02-28T04:56:30;2.20;99.90
52203;DHT22;38173;52.850;6.970;2023-02-28T04:58:58;2.20;99.90
52203;DHT22;38173;52.850;6.970;2023-02-28T05:01:25;2.20;99.90
52203;DHT22;38173;52.850;6.970;2023-02-28T05:03:51;2.20;99.90
52203;DHT22;38173;52.850;6.970;2023-02-28T05:06:17;2.20;99.90
52203;DHT22;38173;52.850;6.970;2023-02-28T05:08:43;2.20;99.90
52203;DHT22;38173;52.850;6.970;2023-02-28T05:11:17;2.20;99.90
52203;DHT22;38173;52.850;6.970;2023-02-28T05:13:43;2.20;99.90
52203;DHT22;38173;52.850;6.970;2023-02-28T05:16:09;2.20;99.90
52203;DHT22;38173;52.850;6.970;2023-02-28T05:18:36;2.10;99.90
52203;DHT22;38173;52.850;6.970;2023-02-28T05:21:01;2.10;99.90
52203;DHT22;38173;52.850;6.970;2023-02-28T05:23:30;2.10;99.90
52203;DHT22;38173;52.850;6.970;2023-02-28T05:25:56;2.10;99.90
52203;DHT22;38173;52.850;6.970;2023-02-28T05:28:24;2.10;99.90
52203;DHT22;38173;52.850;6.970;2023-02-28T05:30:50;2.10;99.90
52203;DHT22;38173;52.850;6.970;2023-02-28T05:33:16;2.10;99.90
52203;DHT22;38173;52.850;6.970;2023-02-28T05:35:42;2.10;99.90
52203;DHT22;38173;52.850;6.970;2023-02-28T05:38:10;2.10;99.90
52203;DHT22;38173;52.850;6.970;2023-02-28T05:40:37;2.10;99.90
52203;DHT22;38173;52.850;6.970;2023-02-28T05:43:03;2.10;99.90
52203;DHT22;38173;52.850;6.970;2023-02-28T05:45:29;2.10;99.90
52203;DHT22;38173;52.850;6.970;2023-02-28T05:47:56;2.10;99.90
52203;DHT22;38173;52.850;6.970;2023-02-28T05:50:21;2.10;99.90
52203;DHT22;38173;52.850;6.970;2023-02-28T05:52:50;2.10;99.90
52203;DHT22;38173;52.850;6.970;2023-02-28T05:55:19;2.10;99.90
52203;DHT22;38173;52.850;6.970;2023-02-28T05:57:47;2.10;99.90
52203;DHT22;38173;52.850;6.970;2023-02-28T06:00:16;2.10;99.90
52203;DHT22;38173;52.850;6.970;2023-02-28T06:02:44;2.10;99.90
52203;DHT22;38173;52.850;6.970;2023-02-28T06:05:13;2.10;99.90
52203;DHT22;38173;52.850;6.970;2023-02-28T06:07:42;2.10;99.90
52203;DHT22;38173;52.850;6.970;2023-02-28T06:10:09;2.10;99.90
52203;DHT22;38173;52.850;6.970;2023-02-28T06:12:35;2.10;99.90
52203;DHT22;38173;52.850;6.970;2023-02-28T06:15:02;2.10;99.90
52203;DHT22;38173;52.850;6.970;2023-02-28T06:17:27;2.00;99.90
52203;DHT22;38173;52.850;6.970;2023-02-28T06:19:56;2.00;99.90
52203;DHT22;38173;52.850;6.970;2023-02-28T06:22:22;2.10;99.90
52203;DHT22;38173;52.850;6.970;2023-02-28T06:24:48;2.00;99.90
52203;DHT22;38173;52.850;6.970;2023-02-28T06:27:17;2.00;99.90
52203;DHT22;38173;52.850;6.970;2023-02-28T06:29:43;2.00;99.90
52203;DHT22;38173;52.850;6.970;2023-02-28T06:32:09;2.00;99.90
52203;DHT22;38173;52.850;6.970;2023-02-28T06:34:35;2.00;99.90
52203;DHT22;38173;52.850;6.970;2023-02-28T06:37:01;2.00;99.90
52203;DHT22;38173;52.850;6.970;2023-02-28T06:39:30;2.00;99.90
52203;DHT22;38173;52.850;6.970;2023-02-28T06:42:07;2.10;99.90
52203;DHT22;38173;52.850;6.970;2023-02-28T06:44:32;2.00;99.90
52203;DHT22;38173;52.850;6.970;2023-02-28T06:47:01;2.00;99.90
52203;DHT22;38173;52.850;6.970;2023-02-28T06:49:34;2.00;99.90
52203;DHT22;38173;52.850;6.970;2023-02-28T06:52:00;2.10;99.90
52203;DHT22;38173;52.850;6.970;2023-02-28T06:54:31;2.20;99.90
52203;DHT22;38173;52.850;6.970;2023-02-28T06:56:57;2.10;99.90
52203;DHT22;38173;52.850;6.970;2023-02-28T06:59:23;2.20;99.90
52203;DHT22;38173;52.850;6.970;2023-02-28T07:01:49;2.20;99.90
52203;DHT22;38173;52.850;6.970;2023-02-28T07:04:14;2.20;99.90
52203;DHT22;38173;52.850;6.970;2023-02-28T07:06:40;2.30;99.90
52203;DHT22;38173;52.850;6.970;2023-02-28T07:09:06;2.20;99.90
52203;DHT22;38173;52.850;6.970;2023-02-28T07:11:31;2.20;99.90
52203;DHT22;38173;52.850;6.970;2023-02-28T07:13:57;2.20;99.90
52203;DHT22;38173;52.850;6.970;2023-02-28T07:16:23;2.20;99.90
52203;DHT22;38173;52.850;6.970;2023-02-28T07:18:51;2.20;99.90
52203;DHT22;38173;52.850;6.970;2023-02-28T07:21:17;2.10;99.90
52203;DHT22;38173;52.850;6.970;2023-02-28T07:23:44;2.10;99.90
52203;DHT22;38173;52.850;6.970;2023-02-28T07:26:11;2.00;99.90
52203;DHT22;38173;52.850;6.970;2023-02-28T07:28:38;2.00;99.90
52203;DHT22;38173;52.850;6.970;2023-02-28T07:31:04;1.90;99.90
52203;DHT22;38173;52.850;6.970;2023-02-28T07:33:30;2.00;99.90
52203;DHT22;38173;52.850;6.970;2023-02-28T07:36:03;1.90;99.90
52203;DHT22;38173;52.850;6.970;2023-02-28T07:38:29;1.90;99.90
52203;DHT22;38173;52.850;6.970;2023-02-28T07:40:55;1.90;99.90
52203;DHT22;38173;52.850;6.970;2023-02-28T07:43:21;1.90;99.90
52203;DHT22;38173;52.850;6.970;2023-02-28T07:45:46;1.90;99.90
52203;DHT22;38173;52.850;6.970;2023-02-28T07:48:12;1.90;99.90
52203;DHT22;38173;52.850;6.970;2023-02-28T07:50:38;1.90;99.90
52203;DHT22;38173;52.850;6.970;2023-02-28T07:53:03;1.90;99.90
52203;DHT22;38173;52.850;6.970;2023-02-28T07:55:30;1.90;99.90
52203;DHT22;38173;52.850;6.970;2023-02-28T07:57:56;1.90;99.90
52203;DHT22;38173;52.850;6.970;2023-02-28T08:00:25;1.90;99.90
52203;DHT22;38173;52.850;6.970;2023-02-28T08:02:51;1.90;99.90
52203;DHT22;38173;52.850;6.970;2023-02-28T08:05:19;1.90;99.90
52203;DHT22;38173;52.850;6.970;2023-02-28T08:07:45;2.00;99.90
52203;DHT22;38173;52.850;6.970;2023-02-28T08:10:16;2.10;99.90
52203;DHT22;38173;52.850;6.970;2023-02-28T08:12:42;2.10;99.90
52203;DHT22;38173;52.850;6.970;2023-02-28T08:15:07;2.30;99.90
52203;DHT22;38173;52.850;6.970;2023-02-28T08:17:36;2.50;99.90
52203;DHT22;38173;52.850;6.970;2023-02-28T08:20:08;2.60;99.90
52203;DHT22;38173;52.850;6.970;2023-02-28T08:22:35;2.80;99.90
52203;DHT22;38173;52.850;6.970;2023-02-28T08:25:01;2.90;99.90
52203;DHT22;38173;52.850;6.970;2023-02-28T08:27:28;3.00;99.90
52203;DHT22;38173;52.850;6.970;2023-02-28T08:29:53;3.10;99.90
52203;DHT22;38173;52.850;6.970;2023-02-28T08:32:19;3.20;99.90
52203;DHT22;38173;52.850;6.970;2023-02-28T08:34:45;3.20;99.90
52203;DHT22;38173;52.850;6.970;2023-02-28T08:37:10;3.30;99.90
52203;DHT22;38173;52.850;6.970;2023-02-28T08:39:36;3.20;99.90
52203;DHT22;38173;52.850;6.970;2023-02-28T08:42:02;3.30;99.90
52203;DHT22;38173;52.850;6.970;2023-02-28T08:44:28;3.30;99.90
52203;DHT22;38173;52.850;6.970;2023-02-28T08:46:54;3.30;99.90
52203;DHT22;38173;52.850;6.970;2023-02-28T08:49:20;3.30;99.90
52203;DHT22;38173;52.850;6.970;2023-02-28T08:51:45;3.30;99.90
52203;DHT22;38173;52.850;6.970;2023-02-28T08:54:11;3.50;99.90
52203;DHT22;38173;52.850;6.970;2023-02-28T08:56:47;3.60;99.90
52203;DHT22;38173;52.850;6.970;2023-02-28T08:59:13;3.70;99.90
52203;DHT22;38173;52.850;6.970;2023-02-28T09:01:38;3.80;99.90
52203;DHT22;38173;52.850;6.970;2023-02-28T09:04:04;3.80;99.90
52203;DHT22;38173;52.850;6.970;2023-02-28T09:06:32;3.90;99.90
52203;DHT22;38173;52.850;6.970;2023-02-28T09:08:58;4.00;99.90
52203;DHT22;38173;52.850;6.970;2023-02-28T09:11:25;4.10;99.90
52203;DHT22;38173;52.850;6.970;2023-02-28T09:13:50;4.30;99.90
52203;DHT22;38173;52.850;6.970;2023-02-28T09:16:17;4.50;99.90
52203;DHT22;38173;52.850;6.970;2023-02-28T09:18:43;4.60;99.90
52203;DHT22;38173;52.850;6.970;2023-02-28T09:21:12;4.70;99.90
52203;DHT22;38173;52.850;6.970;2023-02-28T09:23:41;4.70;99.90
52203;DHT22;38173;52.850;6.970;2023-02-28T09:26:13;4.90;99.90
52203;DHT22;38173;52.850;6.970;2023-02-28T09:28:38;4.90;99.90
52203;DHT22;38173;52.850;6.970;2023-02-28T09:31:04;5.00;99.90
52203;DHT22;38173;52.850;6.970;2023-02-28T09:33:30;5.10;99.90
52203;DHT22;38173;52.850;6.970;2023-02-28T09:35:59;5.20;99.90
52203;DHT22;38173;52.850;6.970;2023-02-28T09:38:26;5.30;99.90
52203;DHT22;38173;52.850;6.970;2023-02-28T09:41:03;5.40;99.90
52203;DHT22;38173;52.850;6.970;2023-02-28T09:43:32;5.50;99.90
52203;DHT22;38173;52.850;6.970;2023-02-28T09:46:08;5.60;99.90
52203;DHT22;38173;52.850;6.970;2023-02-28T09:48:39;5.60;99.90
52203;DHT22;38173;52.850;6.970;2023-02-28T09:53:52;5.70;99.90
52203;DHT22;38173;52.850;6.970;2023-02-28T09:56:25;5.70;99.90
52203;DHT22;38173;52.850;6.970;2023-02-28T09:59:00;5.80;99.90
52203;DHT22;38173;52.850;6.970;2023-02-28T10:03:56;5.80;99.90
52203;DHT22;38173;52.850;6.970;2023-02-28T10:06:23;6.00;99.90
52203;DHT22;38173;52.850;6.970;2023-02-28T10:09:01;6.10;99.90
52203;DHT22;38173;52.850;6.970;2023-02-28T10:11:27;6.10;99.90
52203;DHT22;38173;52.850;6.970;2023-02-28T10:14:02;6.10;99.90
52203;DHT22;38173;52.850;6.970;2023-02-28T10:16:38;6.10;99.90
52203;DHT22;38173;52.850;6.970;2023-02-28T10:19:11;6.00;99.90
52203;DHT22;38173;52.850;6.970;2023-02-28T10:21:39;6.00;99.90
52203;DHT22;38173;52.850;6.970;2023-02-28T10:26:51;6.20;99.90
52203;DHT22;38173;52.850;6.970;2023-02-28T10:29:20;6.30;99.90
52203;DHT22;38173;52.850;6.970;2023-02-28T10:31:46;6.50;99.90
52203;DHT22;38173;52.850;6.970;2023-02-28T10:34:12;6.60;99.90
52203;DHT22;38173;52.850;6.970;2023-02-28T10:36:44;6.70;99.90
52203;DHT22;38173;52.850;6.970;2023-02-28T10:41:55;6.80;99.90
52203;DHT22;38173;52.850;6.970;2023-02-28T10:44:21;6.90;99.90
52203;DHT22;38173;52.850;6.970;2023-02-28T10:46:48;7.00;99.90
52203;DHT22;38173;52.850;6.970;2023-02-28T10:49:25;7.10;99.90
52203;DHT22;38173;52.850;6.970;2023-02-28T10:51:55;7.10;99.90
52203;DHT22;38173;52.850;6.970;2023-02-28T10:54:24;7.30;99.90
52203;DHT22;38173;52.850;6.970;2023-02-28T10:59:36;8.10;99.90
52203;DHT22;38173;52.850;6.970;2023-02-28T11:02:02;8.50;99.90
52203;DHT22;38173;52.850;6.970;2023-02-28T11:07:03;9.00;98.20
52203;DHT22;38173;52.850;6.970;2023-02-28T11:09:37;9.20;97.50
52203;DHT22;38173;52.850;6.970;2023-02-28T11:12:04;9.50;96.00
52203;DHT22;38173;52.850;6.970;2023-02-28T11:14:31;9.70;96.40
52203;DHT22;38173;52.850;6.970;2023-02-28T11:17:11;10.00;97.30
52203;DHT22;38173;52.850;6.970;2023-02-28T11:19:40;10.30;97.90
52203;DHT22;38173;52.850;6.970;2023-02-28T11:22:09;10.40;94.90
52203;DHT22;38173;52.850;6.970;2023-02-28T11:24:43;10.50;95.60
52203;DHT22;38173;52.850;6.970;2023-02-28T11:29:50;10.70;95.60
52203;DHT22;38173;52.850;6.970;2023-02-28T11:32:18;10.70;92.80
52203;DHT22;38173;52.850;6.970;2023-02-28T11:34:46;10.30;91.80
52203;DHT22;38173;52.850;6.970;2023-02-28T11:37:14;9.80;95.30
52203;DHT22;38173;52.850;6.970;2023-02-28T11:39:40;9.60;95.00
52203;DHT22;38173;52.850;6.970;2023-02-28T11:44:39;9.00;99.90
52203;DHT22;38173;52.850;6.970;2023-02-28T11:52:51;8.50;99.90
52203;DHT22;38173;52.850;6.970;2023-02-28T11:55:32;8.40;99.90
52203;DHT22;38173;52.850;6.970;2023-02-28T12:03:21;8.30;97.10
52203;DHT22;38173;52.850;6.970;2023-02-28T12:05:57;8.40;97.00
52203;DHT22;38173;52.850;6.970;2023-02-28T12:19:21;7.50;99.90
52203;DHT22;38173;52.850;6.970;2023-02-28T12:21:55;7.50;99.90
52203;DHT22;38173;52.850;6.970;2023-02-28T12:24:39;7.40;99.90
52203;DHT22;38173;52.850;6.970;2023-02-28T12:27:10;7.30;95.90
52203;DHT22;38173;52.850;6.970;2023-02-28T12:29:40;7.30;99.90
52203;DHT22;38173;52.850;6.970;2023-02-28T12:32:10;7.20;94.00
52203;DHT22;38173;52.850;6.970;2023-02-28T12:34:44;7.30;99.80
52203;DHT22;38173;52.850;6.970;2023-02-28T12:37:14;7.30;96.50
52203;DHT22;38173;52.850;6.970;2023-02-28T12:39:43;7.20;97.30
52203;DHT22;38173;52.850;6.970;2023-02-28T12:42:16;7.50;98.00
52203;DHT22;38173;52.850;6.970;2023-02-28T12:44:44;7.80;99.90
52203;DHT22;38173;52.850;6.970;2023-02-28T12:47:17;7.90;99.90
52203;DHT22;38173;52.850;6.970;2023-02-28T12:49:54;7.90;95.80
52203;DHT22;38173;52.850;6.970;2023-02-28T12:55:35;7.60;96.20
52203;DHT22;38173;52.850;6.970;2023-02-28T13:00:35;7.20;96.60
52203;DHT22;38173;52.850;6.970;2023-02-28T13:05:50;7.00;96.80
52203;DHT22;38173;52.850;6.970;2023-02-28T13:10:53;6.80;95.90
52203;DHT22;38173;52.850;6.970;2023-02-28T13:13:25;6.80;99.00
52203;DHT22;38173;52.850;6.970;2023-02-28T13:16:06;6.80;99.90
52203;DHT22;38173;52.850;6.970;2023-02-28T13:18:37;6.80;99.90
52203;DHT22;38173;52.850;6.970;2023-02-28T13:21:08;6.90;99.80
52203;DHT22;38173;52.850;6.970;2023-02-28T13:23:56;6.80;97.20
52203;DHT22;38173;52.850;6.970;2023-02-28T13:31:26;6.70;93.10
52203;DHT22;38173;52.850;6.970;2023-02-28T13:36:31;6.80;97.80
52203;DHT22;38173;52.850;6.970;2023-02-28T13:39:02;7.10;97.80
52203;DHT22;38173;52.850;6.970;2023-02-28T13:44:06;7.90;93.80
52203;DHT22;38173;52.850;6.970;2023-02-28T13:46:33;8.40;94.50
52203;DHT22;38173;52.850;6.970;2023-02-28T13:51:45;8.50;93.00
52203;DHT22;38173;52.850;6.970;2023-02-28T13:54:24;8.30;93.20
52203;DHT22;38173;52.850;6.970;2023-02-28T14:02:17;8.00;92.20
52203;DHT22;38173;52.850;6.970;2023-02-28T14:07:19;7.60;94.00
52203;DHT22;38173;52.850;6.970;2023-02-28T14:09:48;7.40;94.30
52203;DHT22;38173;52.850;6.970;2023-02-28T14:13:11;7.40;95.60
52203;DHT22;38173;52.850;6.970;2023-02-28T14:15:17;7.20;95.00
52203;DHT22;38173;52.850;6.970;2023-02-28T14:17:53;7.20;92.00
52203;DHT22;38173;52.850;6.970;2023-02-28T14:20:20;7.20;93.50
52203;DHT22;38173;52.850;6.970;2023-02-28T14:25:18;7.90;95.20
52203;DHT22;38173;52.850;6.970;2023-02-28T14:38:14;7.40;95.30
52203;DHT22;38173;52.850;6.970;2023-02-28T14:40:43;7.60;96.30
52203;DHT22;38173;52.850;6.970;2023-02-28T14:43:20;8.10;99.20
52203;DHT22;38173;52.850;6.970;2023-02-28T14:45:49;9.00;96.40
52203;DHT22;38173;52.850;6.970;2023-02-28T14:48:16;10.20;99.40
52203;DHT22;38173;52.850;6.970;2023-02-28T14:50:47;11.10;97.40
52203;DHT22;38173;52.850;6.970;2023-02-28T14:53:16;11.90;94.20
52203;DHT22;38173;52.850;6.970;2023-02-28T14:55:46;12.40;91.50
52203;DHT22;38173;52.850;6.970;2023-02-28T14:58:20;12.60;80.30
52203;DHT22;38173;52.850;6.970;2023-02-28T15:00:47;12.50;72.40
52203;DHT22;38173;52.850;6.970;2023-02-28T15:03:18;12.40;77.60
52203;DHT22;38173;52.850;6.970;2023-02-28T15:08:31;12.00;75.70
52203;DHT22;38173;52.850;6.970;2023-02-28T15:11:22;11.90;74.50
52203;DHT22;38173;52.850;6.970;2023-02-28T15:13:50;11.60;76.20
52203;DHT22;38173;52.850;6.970;2023-02-28T15:18:49;11.60;79.50
52203;DHT22;38173;52.850;6.970;2023-02-28T15:21:21;11.80;81.70
52203;DHT22;38173;52.850;6.970;2023-02-28T15:23:52;12.30;77.70
52203;DHT22;38173;52.850;6.970;2023-02-28T15:26:30;12.90;77.40
52203;DHT22;38173;52.850;6.970;2023-02-28T15:28:59;13.10;76.90
52203;DHT22;38173;52.850;6.970;2023-02-28T15:31:32;12.90;73.50
52203;DHT22;38173;52.850;6.970;2023-02-28T15:34:03;12.60;75.20
52203;DHT22;38173;52.850;6.970;2023-02-28T15:36:29;12.20;74.20
52203;DHT22;38173;52.850;6.970;2023-02-28T15:38:57;11.80;77.20
52203;DHT22;38173;52.850;6.970;2023-02-28T15:41:27;11.70;79.90
52203;DHT22;38173;52.850;6.970;2023-02-28T15:46:44;12.10;76.00
52203;DHT22;38173;52.850;6.970;2023-02-28T15:49:17;12.30;76.20
52203;DHT22;38173;52.850;6.970;2023-02-28T15:51:44;12.20;71.30
52203;DHT22;38173;52.850;6.970;2023-02-28T15:54:14;12.00;71.70
52203;DHT22;38173;52.850;6.970;2023-02-28T15:56:45;11.80;75.00
52203;DHT22;38173;52.850;6.970;2023-02-28T15:59:19;11.70;75.00
52203;DHT22;38173;52.850;6.970;2023-02-28T16:01:46;11.50;75.30
52203;DHT22;38173;52.850;6.970;2023-02-28T16:04:16;11.40;78.70
52203;DHT22;38173;52.850;6.970;2023-02-28T16:07:24;11.40;80.50
52203;DHT22;38173;52.850;6.970;2023-02-28T16:09:31;11.40;78.90
52203;DHT22;38173;52.850;6.970;2023-02-28T16:12:00;11.20;79.00
52203;DHT22;38173;52.850;6.970;2023-02-28T16:14:28;11.20;79.40
52203;DHT22;38173;52.850;6.970;2023-02-28T16:16:57;11.50;81.20
52203;DHT22;38173;52.850;6.970;2023-02-28T16:19:36;11.60;77.40
52203;DHT22;38173;52.850;6.970;2023-02-28T16:22:12;11.60;82.50
52203;DHT22;38173;52.850;6.970;2023-02-28T16:24:37;11.70;81.10
52203;DHT22;38173;52.850;6.970;2023-02-28T16:27:06;11.70;81.30
52203;DHT22;38173;52.850;6.970;2023-02-28T16:29:33;11.60;80.00
52203;DHT22;38173;52.850;6.970;2023-02-28T16:32:00;11.10;78.50
52203;DHT22;38173;52.850;6.970;2023-02-28T16:34:26;10.50;79.10
52203;DHT22;38173;52.850;6.970;2023-02-28T16:36:53;9.80;76.20
52203;DHT22;38173;52.850;6.970;2023-02-28T16:39:26;9.10;80.60
52203;DHT22;38173;52.850;6.970;2023-02-28T16:41:52;8.60;80.30
52203;DHT22;38173;52.850;6.970;2023-02-28T16:44:24;8.00;82.70
52203;DHT22;38173;52.850;6.970;2023-02-28T16:46:52;7.60;85.80
52203;DHT22;38173;52.850;6.970;2023-02-28T16:49:18;7.20;86.80
52203;DHT22;38173;52.850;6.970;2023-02-28T16:51:43;6.80;88.10
52203;DHT22;38173;52.850;6.970;2023-02-28T16:54:09;6.40;91.20
52203;DHT22;38173;52.850;6.970;2023-02-28T16:56:34;6.20;92.40
52203;DHT22;38173;52.850;6.970;2023-02-28T16:59:01;5.90;92.10
52203;DHT22;38173;52.850;6.970;2023-02-28T17:01:29;5.70;94.00
52203;DHT22;38173;52.850;6.970;2023-02-28T17:03:56;5.50;94.90
52203;DHT22;38173;52.850;6.970;2023-02-28T17:06:23;5.30;96.10
52203;DHT22;38173;52.850;6.970;2023-02-28T17:08:50;5.20;96.70
52203;DHT22;38173;52.850;6.970;2023-02-28T17:11:16;5.00;96.90
52203;DHT22;38173;52.850;6.970;2023-02-28T17:13:42;4.90;97.20
52203;DHT22;38173;52.850;6.970;2023-02-28T17:16:30;4.70;97.70
52203;DHT22;38173;52.850;6.970;2023-02-28T17:18:54;4.60;98.50
52203;DHT22;38173;52.850;6.970;2023-02-28T17:21:22;4.40;98.50
52203;DHT22;38173;52.850;6.970;2023-02-28T17:23:47;4.30;98.20
52203;DHT22;38173;52.850;6.970;2023-02-28T17:26:14;4.20;97.90
52203;DHT22;38173;52.850;6.970;2023-02-28T17:28:40;4.10;96.90
52203;DHT22;38173;52.850;6.970;2023-02-28T17:31:07;3.90;97.20
52203;DHT22;38173;52.850;6.970;2023-02-28T17:33:32;3.90;97.30
52203;DHT22;38173;52.850;6.970;2023-02-28T17:35:58;3.80;97.80
52203;DHT22;38173;52.850;6.970;2023-02-28T17:38:24;3.70;97.30
52203;DHT22;38173;52.850;6.970;2023-02-28T17:40:49;3.70;97.20
52203;DHT22;38173;52.850;6.970;2023-02-28T17:43:15;3.60;97.00
52203;DHT22;38173;52.850;6.970;2023-02-28T17:45:41;3.50;97.80
52203;DHT22;38173;52.850;6.970;2023-02-28T17:48:09;3.40;98.00
52203;DHT22;38173;52.850;6.970;2023-02-28T17:50:37;3.40;98.00
52203;DHT22;38173;52.850;6.970;2023-02-28T17:53:03;3.30;98.70
52203;DHT22;38173;52.850;6.970;2023-02-28T17:55:29;3.20;98.90
52203;DHT22;38173;52.850;6.970;2023-02-28T17:57:55;3.10;99.60
52203;DHT22;38173;52.850;6.970;2023-02-28T18:00:20;3.00;99.80
52203;DHT22;38173;52.850;6.970;2023-02-28T18:02:49;3.00;99.90
52203;DHT22;38173;52.850;6.970;2023-02-28T18:05:15;2.80;99.90